Time;durP1;ratioP1;P1;durP2;ratioP2;P2;SDS_P1;SDS_P2;PMS_P1;PMS_P2;Temp;Humidity;BMP_temperature;BMP_pressure;BME280_temperature;BME280_humidity;BME280_pressure;Samples;Min_cycle;Max_cycle;Signal;HPM_P1;HPM_P2
2021/11/11 00:01:06;;;;;;;38.07;18.60;;;9.80;72.20;;;;;;5101829;28;20414;-82
2021/11/11 00:03:32;;;;;;;41.40;20.07;;;9.70;72.80;;;;;;5101429;28;20472;-82
2021/11/11 00:05:59;;;;;;;37.43;17.90;;;9.70;73.10;;;;;;5101107;28;20409;-82
2021/11/11 00:08:25;;;;;;;35.38;19.67;;;9.60;73.50;;;;;;5100818;28;20179;-82
2021/11/11 00:10:50;;;;;;;35.50;17.30;;;9.60;73.90;;;;;;5084632;28;20232;-82
2021/11/11 00:13:19;;;;;;;39.93;17.87;;;9.50;74.10;;;;;;5101966;28;20240;-82
2021/11/11 00:15:47;;;;;;;41.00;20.38;;;9.80;74.00;;;;;;5100770;28;20184;-82
2021/11/11 00:18:13;;;;;;;35.42;18.88;;;9.90;73.70;;;;;;5114689;28;20261;-81
2021/11/11 00:20:38;;;;;;;41.35;20.27;;;9.70;73.30;;;;;;5120029;28;20270;-82
2021/11/11 00:23:04;;;;;;;37.27;19.70;;;9.40;73.70;;;;;;5100247;28;20208;-83
2021/11/11 00:25:30;;;;;;;49.83;20.20;;;9.40;74.50;;;;;;5099815;28;20252;-82
2021/11/11 00:27:58;;;;;;;42.97;19.70;;;9.80;74.60;;;;;;5099475;28;20225;-82
2021/11/11 00:30:23;;;;;;;38.42;19.67;;;9.90;74.30;;;;;;5100942;28;20271;-82
2021/11/11 00:32:51;;;;;;;36.20;19.60;;;9.90;74.10;;;;;;5101645;28;20647;-82
2021/11/11 00:35:20;;;;;;;37.78;21.33;;;10.00;73.20;;;;;;5099336;28;20203;-81
2021/11/11 00:37:46;;;;;;;43.00;20.02;;;9.80;73.00;;;;;;5101008;28;20183;-82
2021/11/11 00:40:13;;;;;;;45.00;20.07;;;9.50;73.20;;;;;;5079677;28;20177;-82
2021/11/11 00:42:38;;;;;;;41.45;20.30;;;9.40;73.60;;;;;;5062939;28;20419;-83
2021/11/11 00:45:05;;;;;;;38.47;18.50;;;9.30;74.20;;;;;;5078954;28;20238;-83
2021/11/11 00:47:31;;;;;;;38.50;19.58;;;9.50;74.60;;;;;;5081149;28;20414;-83
2021/11/11 00:49:58;;;;;;;36.07;18.40;;;9.70;74.70;;;;;;5078074;28;20177;-83
2021/11/11 00:52:24;;;;;;;42.75;22.85;;;9.80;74.10;;;;;;5079928;28;20506;-83
2021/11/11 00:54:49;;;;;;;41.63;20.60;;;9.40;73.90;;;;;;5078915;28;20232;-83
2021/11/11 00:57:15;;;;;;;38.23;20.70;;;9.50;74.50;;;;;;5098471;28;20263;-83
2021/11/11 00:59:42;;;;;;;42.43;21.67;;;9.70;74.50;;;;;;5101046;28;20611;-83
2021/11/11 01:02:10;;;;;;;50.53;21.95;;;9.90;74.10;;;;;;5100433;28;20175;-82
2021/11/11 01:04:37;;;;;;;44.35;20.92;;;10.00;73.30;;;;;;5098484;28;20320;-81
2021/11/11 01:07:05;;;;;;;35.50;18.35;;;9.90;73.20;;;;;;5099248;28;20179;-82
2021/11/11 01:09:30;;;;;;;42.25;20.63;;;9.70;73.10;;;;;;5095662;28;20180;-82
2021/11/11 01:11:57;;;;;;;40.83;20.17;;;9.20;73.70;;;;;;5081430;28;20247;-82
2021/11/11 01:14:24;;;;;;;36.45;19.73;;;9.10;74.80;;;;;;5120292;28;20604;-82
2021/11/11 01:16:52;;;;;;;37.33;20.17;;;9.30;75.70;;;;;;5120574;28;20200;-82
2021/11/11 01:19:19;;;;;;;47.30;21.27;;;9.40;76.00;;;;;;5103007;28;20195;-82
2021/11/11 01:21:45;;;;;;;39.13;20.60;;;9.20;75.20;;;;;;5105634;28;20187;-82
2021/11/11 01:24:11;;;;;;;44.88;19.58;;;9.40;75.20;;;;;;5100281;28;20279;-81
2021/11/11 01:26:36;;;;;;;39.50;19.60;;;9.30;75.00;;;;;;5085798;28;20236;-82
2021/11/11 01:29:03;;;;;;;36.00;19.83;;;9.50;75.10;;;;;;5092390;28;20195;-82
2021/11/11 01:31:28;;;;;;;46.63;21.33;;;9.60;74.80;;;;;;5084931;28;20183;-81
2021/11/11 01:33:54;;;;;;;47.70;23.03;;;9.60;74.20;;;;;;5085630;28;20192;-82
2021/11/11 01:36:20;;;;;;;37.57;19.30;;;9.50;74.20;;;;;;5085653;28;20200;-81
2021/11/11 01:38:45;;;;;;;48.90;21.93;;;9.60;74.40;;;;;;5085727;28;20665;-82
2021/11/11 01:41:11;;;;;;;45.00;20.27;;;9.80;74.50;;;;;;5103284;28;20693;-82
2021/11/11 01:43:37;;;;;;;43.87;21.53;;;9.90;74.00;;;;;;5098951;28;20623;-82
2021/11/11 01:46:03;;;;;;;37.87;20.87;;;9.60;73.60;;;;;;5095306;28;20406;-82
2021/11/11 01:48:29;;;;;;;37.17;20.25;;;9.40;74.00;;;;;;5094892;28;20179;-82
2021/11/11 01:50:55;;;;;;;40.53;20.02;;;9.30;74.60;;;;;;5097530;28;20179;-81
2021/11/11 01:53:21;;;;;;;37.10;20.13;;;9.40;75.00;;;;;;5096754;28;20180;-82
2021/11/11 01:55:49;;;;;;;43.47;19.20;;;9.40;74.50;;;;;;5098023;28;20426;-81
2021/11/11 01:58:16;;;;;;;48.67;20.17;;;9.20;74.80;;;;;;5100117;28;20266;-82
2021/11/11 02:01:02;;;;;;;49.75;20.63;;;9.20;75.10;;;;;;5105048;28;20172;-82
2021/11/11 02:03:28;;;;;;;38.15;19.33;;;9.40;75.20;;;;;;5112937;28;20208;-82
2021/11/11 02:05:54;;;;;;;42.05;20.52;;;8.90;75.50;;;;;;5114531;28;20180;-82
2021/11/11 02:08:20;;;;;;;36.37;18.87;;;9.10;76.30;;;;;;5114090;28;20187;-82
2021/11/11 02:10:46;;;;;;;37.15;19.90;;;9.30;76.10;;;;;;5096132;28;20187;-82
2021/11/11 02:13:12;;;;;;;37.38;19.33;;;9.20;75.30;;;;;;5107728;28;20191;-83
2021/11/11 02:15:38;;;;;;;43.83;19.67;;;9.20;75.60;;;;;;5117698;28;20182;-82
2021/11/11 02:18:06;;;;;;;37.83;17.88;;;9.40;75.50;;;;;;5116631;28;20453;-82
2021/11/11 02:20:35;;;;;;;37.67;21.17;;;9.60;75.30;;;;;;5116750;28;20175;-82
2021/11/11 02:23:03;;;;;;;37.45;18.05;;;9.60;74.60;;;;;;5117469;28;20167;-82
2021/11/11 02:25:29;;;;;;;34.83;19.77;;;9.10;74.70;;;;;;5116189;28;20578;-82
2021/11/11 02:27:59;;;;;;;41.92;18.30;;;9.10;75.60;;;;;;5116608;28;20171;-82
2021/11/11 02:30:27;;;;;;;34.08;19.25;;;9.20;75.50;;;;;;5077941;28;20187;-82
2021/11/11 02:32:53;;;;;;;40.58;19.00;;;9.30;75.20;;;;;;5076980;28;20258;-82
2021/11/11 02:35:20;;;;;;;35.43;18.20;;;9.60;75.10;;;;;;5076672;28;20577;-82
2021/11/11 02:37:46;;;;;;;43.80;18.50;;;9.10;74.50;;;;;;5075740;28;20429;-82
2021/11/11 02:40:22;;;;;;;41.13;19.60;;;9.10;75.30;;;;;;5075634;28;20207;-82
2021/11/11 02:42:50;;;;;;;37.85;19.00;;;9.30;75.40;;;;;;5082766;28;20199;-82
2021/11/11 02:45:22;;;;;;;49.28;17.95;;;9.20;74.90;;;;;;5095479;28;20220;-82
2021/11/11 02:47:48;;;;;;;37.42;19.63;;;9.20;75.30;;;;;;5097710;28;20163;-82
2021/11/11 02:50:15;;;;;;;30.23;19.05;;;9.30;75.30;;;;;;5097218;28;20200;-82
2021/11/11 02:52:43;;;;;;;36.03;19.23;;;9.50;75.10;;;;;;5095891;28;20171;-82
2021/11/11 02:55:10;;;;;;;32.35;19.23;;;9.50;74.30;;;;;;5096815;28;20203;-82
2021/11/11 02:57:38;;;;;;;45.40;20.92;;;9.50;74.40;;;;;;5081085;28;20204;-82
2021/11/11 03:00:11;;;;;;;38.47;20.45;;;9.40;74.30;;;;;;5075180;28;20210;-80
2021/11/11 03:02:38;;;;;;;40.67;21.33;;;9.70;74.20;;;;;;5075708;28;20230;-82
2021/11/11 03:05:06;;;;;;;45.53;20.00;;;9.70;73.70;;;;;;5087301;28;20235;-82
2021/11/11 03:07:32;;;;;;;39.13;18.73;;;9.70;73.50;;;;;;5106299;28;20172;-82
2021/11/11 03:09:58;;;;;;;31.70;18.73;;;9.80;73.50;;;;;;5113000;28;20175;-82
2021/11/11 03:12:23;;;;;;;44.93;19.33;;;9.90;73.40;;;;;;5110522;28;20433;-82
2021/11/11 03:14:52;;;;;;;39.70;21.03;;;9.80;73.20;;;;;;5137450;28;20195;-82
2021/11/11 03:17:18;;;;;;;45.97;21.10;;;9.30;73.60;;;;;;5137602;28;20183;-82
2021/11/11 03:19:44;;;;;;;38.33;20.57;;;9.50;74.30;;;;;;5129643;28;20214;-82
2021/11/11 03:22:15;;;;;;;35.20;21.67;;;9.40;74.40;;;;;;5097234;28;20179;-82
2021/11/11 03:24:41;;;;;;;36.33;22.35;;;9.40;74.60;;;;;;5083716;28;20208;-82
2021/11/11 03:27:08;;;;;;;39.33;20.52;;;9.70;74.30;;;;;;5090594;28;20176;-82
2021/11/11 03:29:35;;;;;;;36.47;21.13;;;9.80;73.90;;;;;;5108333;28;20191;-82
2021/11/11 03:32:01;;;;;;;39.65;21.20;;;9.80;74.00;;;;;;5103505;28;20171;-82
2021/11/11 03:34:26;;;;;;;35.07;21.53;;;10.10;73.70;;;;;;5101579;28;20345;-82
2021/11/11 03:36:54;;;;;;;34.87;20.67;;;10.00;72.90;;;;;;5101595;28;20422;-82
2021/11/11 03:39:21;;;;;;;37.03;19.40;;;10.00;72.90;;;;;;5101872;28;20207;-82
2021/11/11 03:41:48;;;;;;;41.83;20.23;;;10.00;72.90;;;;;;5101106;28;20558;-82
2021/11/11 03:44:15;;;;;;;39.00;21.80;;;9.70;73.20;;;;;;5099525;28;20281;-81
2021/11/11 03:46:42;;;;;;;40.50;21.42;;;9.80;73.40;;;;;;5100431;28;20176;-82
2021/11/11 03:49:08;;;;;;;38.47;20.90;;;9.90;73.60;;;;;;5101023;28;20167;-82
2021/11/11 03:51:34;;;;;;;51.40;22.23;;;9.80;73.50;;;;;;5099931;28;20618;-82
2021/11/11 03:54:01;;;;;;;38.33;21.67;;;10.10;73.50;;;;;;5099899;28;20453;-82
2021/11/11 03:56:27;;;;;;;39.83;22.70;;;10.30;73.20;;;;;;5100458;28;20520;-82
2021/11/11 03:58:52;;;;;;;37.13;21.13;;;10.40;72.50;;;;;;5084241;28;20619;-82
2021/11/11 04:01:18;;;;;;;43.13;21.17;;;10.30;72.00;;;;;;5081019;28;20959;-82
2021/11/11 04:03:44;;;;;;;36.23;20.57;;;10.00;72.00;;;;;;5078434;28;20226;-82
2021/11/11 04:06:10;;;;;;;36.50;20.70;;;10.00;72.80;;;;;;5079545;28;20639;-82
2021/11/11 04:08:36;;;;;;;39.70;21.30;;;10.10;73.10;;;;;;5079482;28;20179;-82
2021/11/11 04:11:03;;;;;;;33.97;19.93;;;10.20;72.80;;;;;;5080615;28;20168;-82
2021/11/11 04:13:29;;;;;;;36.15;21.80;;;10.20;72.90;;;;;;5106356;28;20901;-82
2021/11/11 04:15:56;;;;;;;41.60;20.17;;;10.30;72.80;;;;;;5089565;28;20188;-82
2021/11/11 04:18:22;;;;;;;38.22;19.42;;;10.40;72.40;;;;;;5077261;28;20643;-82
2021/11/11 04:20:48;;;;;;;38.50;20.00;;;10.40;72.00;;;;;;5077788;28;20191;-82
2021/11/11 04:23:14;;;;;;;40.10;19.67;;;10.50;72.20;;;;;;5076413;28;20191;-82
2021/11/11 04:28:11;;;;;;;40.70;20.80;;;10.30;72.30;;;;;;5077962;28;20180;-82
2021/11/11 04:30:39;;;;;;;35.63;19.73;;;10.40;72.40;;;;;;5075388;28;20222;-82
2021/11/11 04:33:07;;;;;;;35.15;19.17;;;10.40;72.20;;;;;;5079191;28;20203;-82
2021/11/11 04:35:33;;;;;;;39.05;20.85;;;10.20;72.10;;;;;;5082895;28;20175;-82
2021/11/11 04:46:29;;;;;;;34.83;17.87;;;9.90;73.20;;;;;;5081170;28;20214;-83
2021/11/11 05:04:49;;;;;;;40.63;22.70;;;9.50;75.80;;;;;;5104749;28;20334;-83
2021/11/11 05:07:15;;;;;;;47.13;23.33;;;9.50;75.90;;;;;;5100321;28;20199;-83
2021/11/11 05:09:41;;;;;;;51.97;22.63;;;9.80;75.90;;;;;;5101900;28;20199;-83
2021/11/11 05:12:11;;;;;;;44.83;21.67;;;9.80;75.60;;;;;;5100446;28;20195;-83
2021/11/11 05:14:37;;;;;;;38.53;20.60;;;9.70;75.30;;;;;;5101463;28;20502;-83
2021/11/11 05:17:03;;;;;;;42.50;21.30;;;9.70;75.10;;;;;;5103778;28;20328;-82
2021/11/11 05:19:29;;;;;;;44.70;21.45;;;9.80;75.00;;;;;;5098018;28;20221;-83
2021/11/11 05:21:55;;;;;;;41.90;20.50;;;10.10;74.80;;;;;;5097531;28;20183;-82
2021/11/11 05:24:21;;;;;;;41.67;23.17;;;10.00;74.10;;;;;;5096379;28;20208;-82
2021/11/11 05:26:46;;;;;;;42.23;23.40;;;9.90;73.90;;;;;;5097376;28;20182;-82
2021/11/11 05:29:12;;;;;;;48.87;23.67;;;10.10;74.10;;;;;;5097233;28;20420;-82
2021/11/11 05:31:38;;;;;;;43.60;21.63;;;10.20;73.90;;;;;;5086893;28;20187;-82
2021/11/11 05:34:04;;;;;;;35.33;21.37;;;10.20;73.50;;;;;;5076655;28;20247;-82
2021/11/11 05:36:30;;;;;;;38.10;19.70;;;10.40;73.50;;;;;;5077160;28;20422;-82
2021/11/11 05:38:55;;;;;;;39.73;22.03;;;10.20;72.90;;;;;;5078841;28;20482;-82
2021/11/11 05:41:21;;;;;;;40.97;20.30;;;10.10;73.00;;;;;;5077042;28;20977;-82
2021/11/11 05:43:47;;;;;;;43.87;21.67;;;9.90;73.80;;;;;;5078820;28;20984;-82
2021/11/11 05:46:14;;;;;;;42.47;21.10;;;9.80;74.10;;;;;;5088039;28;20179;-81
2021/11/11 05:48:40;;;;;;;40.08;21.88;;;9.50;74.80;;;;;;5098753;28;20499;-82
2021/11/11 05:51:05;;;;;;;36.50;19.97;;;9.80;75.40;;;;;;5097263;28;20646;-81
2021/11/11 05:53:31;;;;;;;44.60;21.33;;;9.90;75.40;;;;;;5097662;28;20207;-81
2021/11/11 05:55:57;;;;;;;40.17;21.30;;;10.10;75.20;;;;;;5096263;28;20176;-82
2021/11/11 05:58:23;;;;;;;38.00;21.30;;;10.10;74.40;;;;;;5096647;28;20425;-82
2021/11/11 06:00:49;;;;;;;39.17;23.00;;;10.10;74.10;;;;;;5096493;28;20179;-82
2021/11/11 06:03:16;;;;;;;40.15;21.90;;;10.10;74.00;;;;;;5079699;28;20949;-82
2021/11/11 06:05:42;;;;;;;48.28;22.63;;;10.30;74.30;;;;;;5077728;28;20204;-82
2021/11/11 06:08:09;;;;;;;43.65;23.50;;;10.40;73.90;;;;;;5076917;28;20176;-81
2021/11/11 06:10:35;;;;;;;38.10;20.85;;;10.30;73.40;;;;;;5076428;28;20180;-81
2021/11/11 06:13:00;;;;;;;41.10;20.60;;;9.80;73.60;;;;;;5102958;28;20285;-82
2021/11/11 06:15:26;;;;;;;43.17;21.03;;;9.90;74.60;;;;;;5116938;28;20473;-82
2021/11/11 06:17:55;;;;;;;39.23;21.50;;;10.10;74.60;;;;;;5117489;28;20186;-82
2021/11/11 06:20:30;;;;;;;45.92;22.13;;;10.20;74.10;;;;;;5117142;28;20428;-82
2021/11/11 06:22:56;;;;;;;34.63;20.90;;;10.30;73.80;;;;;;5117227;28;20664;-82
2021/11/11 06:25:22;;;;;;;41.87;22.00;;;10.10;73.50;;;;;;5118595;28;20211;-82
2021/11/11 06:27:48;;;;;;;44.63;22.17;;;9.90;74.00;;;;;;5101166;28;20872;-83
2021/11/11 06:30:14;;;;;;;38.10;20.60;;;10.00;74.50;;;;;;5092951;28;20987;-82
2021/11/11 06:32:40;;;;;;;41.47;18.38;;;10.10;74.40;;;;;;5080606;28;20418;-82
2021/11/11 06:35:07;;;;;;;35.63;19.97;;;10.10;74.30;;;;;;5078418;28;20193;-82
2021/11/11 06:37:34;;;;;;;45.08;22.55;;;10.20;74.00;;;;;;5076702;28;20522;-82
2021/11/11 06:40:00;;;;;;;37.20;22.95;;;10.00;73.80;;;;;;5076998;28;20212;-82
2021/11/11 06:42:26;;;;;;;41.63;22.57;;;9.90;74.00;;;;;;5076819;28;20662;-82
2021/11/11 06:44:52;;;;;;;40.23;23.50;;;9.80;74.30;;;;;;5075251;28;20470;-82
2021/11/11 06:47:17;;;;;;;36.35;19.13;;;10.00;74.60;;;;;;5078154;28;20954;-82
2021/11/11 06:49:43;;;;;;;39.30;21.50;;;10.10;74.50;;;;;;5076729;28;20177;-82
2021/11/11 06:52:09;;;;;;;40.33;20.67;;;9.90;74.20;;;;;;5076622;28;20425;-82
2021/11/11 06:54:35;;;;;;;33.97;21.37;;;10.00;74.60;;;;;;5079112;28;20909;-81
2021/11/11 06:57:02;;;;;;;40.67;21.05;;;10.10;74.70;;;;;;5089589;28;20417;-82
2021/11/11 06:59:28;;;;;;;35.13;19.15;;;9.90;74.50;;;;;;5098483;28;20639;-81
2021/11/11 07:01:53;;;;;;;48.43;22.70;;;10.00;74.50;;;;;;5097964;28;20250;-82
2021/11/11 07:04:24;;;;;;;42.20;21.03;;;9.80;74.10;;;;;;5097643;28;20216;-81
2021/11/11 07:06:51;;;;;;;38.55;20.15;;;9.80;74.50;;;;;;5097858;28;20205;-82
2021/11/11 07:09:17;;;;;;;34.25;19.65;;;10.00;74.50;;;;;;5098476;28;20208;-82
2021/11/11 07:11:42;;;;;;;31.30;18.05;;;10.10;74.40;;;;;;5090120;28;20663;-80
2021/11/11 07:14:09;;;;;;;35.77;20.20;;;10.10;74.30;;;;;;5115019;28;20256;-82
2021/11/11 07:16:34;;;;;;;32.00;18.45;;;10.30;74.30;;;;;;5119448;28;20251;-83
2021/11/11 07:19:00;;;;;;;38.53;20.03;;;10.40;73.70;;;;;;5110235;28;20674;-82
2021/11/11 07:21:26;;;;;;;35.63;19.67;;;10.50;73.40;;;;;;5101275;28;20206;-82
2021/11/11 07:23:52;;;;;;;32.92;19.80;;;10.40;72.90;;;;;;5099835;28;20227;-82
2021/11/11 07:26:17;;;;;;;35.10;17.80;;;10.40;72.90;;;;;;5099396;28;20176;-83
2021/11/11 07:28:43;;;;;;;35.97;21.23;;;10.30;72.80;;;;;;5103056;28;20206;-83
2021/11/11 07:31:09;;;;;;;29.70;19.90;;;10.30;73.00;;;;;;5101825;28;20912;-83
2021/11/11 07:33:35;;;;;;;33.87;18.27;;;10.50;73.10;;;;;;5104010;28;20948;-84
2021/11/11 07:36:03;;;;;;;35.23;20.40;;;10.70;72.30;;;;;;5108733;28;20263;-83
2021/11/11 07:38:30;;;;;;;43.17;22.02;;;10.60;72.00;;;;;;5110136;28;20164;-84
2021/11/11 07:40:56;;;;;;;38.53;20.20;;;10.60;71.50;;;;;;5096687;28;20192;-83
2021/11/11 07:43:22;;;;;;;33.05;19.90;;;10.30;71.60;;;;;;5076703;28;20184;-83
2021/11/11 07:45:47;;;;;;;39.83;21.00;;;10.10;72.70;;;;;;5080416;28;20208;-83
2021/11/11 07:48:14;;;;;;;40.93;19.60;;;10.10;73.30;;;;;;5077969;28;20174;-83
2021/11/11 07:50:42;;;;;;;40.83;21.55;;;9.90;73.80;;;;;;5077811;28;20407;-83
2021/11/11 07:53:09;;;;;;;38.17;20.52;;;10.10;74.00;;;;;;5075303;28;20206;-84
2021/11/11 07:55:38;;;;;;;34.75;20.00;;;10.20;73.90;;;;;;5075525;28;20275;-84
2021/11/11 07:58:04;;;;;;;35.20;19.52;;;10.20;73.90;;;;;;5077169;28;20226;-84
2021/11/11 08:00:30;;;;;;;33.88;18.85;;;10.10;74.10;;;;;;5078948;28;20172;-83
2021/11/11 08:02:56;;;;;;;37.38;22.33;;;10.00;74.30;;;;;;5082233;28;20183;-83
2021/11/11 08:05:22;;;;;;;37.67;21.75;;;10.20;74.60;;;;;;5098477;28;20211;-83
2021/11/11 08:07:49;;;;;;;32.77;20.17;;;10.40;74.20;;;;;;5103380;28;20262;-81
2021/11/11 08:10:17;;;;;;;41.08;19.98;;;10.40;73.70;;;;;;5092090;28;20422;-80
2021/11/11 08:12:43;;;;;;;41.13;22.60;;;10.50;73.50;;;;;;5099702;28;20205;-82
2021/11/11 08:15:10;;;;;;;44.05;22.42;;;10.50;73.20;;;;;;5099829;28;20200;-82
2021/11/11 08:17:36;;;;;;;36.25;19.23;;;10.20;73.00;;;;;;5101373;28;20202;-82
2021/11/11 08:20:02;;;;;;;37.05;21.00;;;10.20;73.40;;;;;;5107685;28;20207;-81
2021/11/11 08:22:29;;;;;;;32.95;18.05;;;10.30;73.10;;;;;;5104567;28;20235;-81
2021/11/11 08:24:56;;;;;;;36.67;18.53;;;10.30;73.30;;;;;;5080583;28;20200;-80
2021/11/11 08:27:24;;;;;;;30.17;19.02;;;10.10;73.00;;;;;;5082482;28;20203;-81
2021/11/11 08:29:50;;;;;;;35.22;20.50;;;10.00;73.30;;;;;;5099854;28;20171;-81
2021/11/11 08:32:17;;;;;;;35.30;19.83;;;10.20;73.70;;;;;;5079445;28;20640;-80
2021/11/11 08:34:44;;;;;;;33.47;18.98;;;10.30;73.60;;;;;;5102372;28;20207;-81
2021/11/11 08:37:10;;;;;;;31.83;17.80;;;10.00;73.70;;;;;;5098758;28;20595;-81
2021/11/11 08:39:38;;;;;;;42.05;20.85;;;10.30;73.80;;;;;;5099721;28;20260;-82
2021/11/11 08:42:05;;;;;;;35.58;20.42;;;10.30;73.50;;;;;;5093567;28;20196;-82
2021/11/11 08:44:31;;;;;;;31.75;18.30;;;10.40;73.10;;;;;;5078000;28;20205;-81
2021/11/11 08:46:58;;;;;;;31.53;19.20;;;10.60;72.80;;;;;;5077882;28;20657;-82
2021/11/11 08:49:23;;;;;;;35.33;18.38;;;10.70;72.60;;;;;;5096858;28;20421;-81
2021/11/11 08:51:51;;;;;;;31.10;17.50;;;10.70;72.10;;;;;;5093998;28;20636;-82
2021/11/11 08:54:19;;;;;;;34.90;19.17;;;10.70;71.90;;;;;;5084197;28;20449;-81
2021/11/11 08:56:48;;;;;;;30.17;18.90;;;10.70;71.70;;;;;;5084735;28;20602;-82
2021/11/11 08:59:19;;;;;;;33.05;17.67;;;10.40;71.80;;;;;;5078311;28;20179;-80
2021/11/11 09:01:46;;;;;;;41.58;18.40;;;10.40;72.30;;;;;;5077743;28;20267;-80
2021/11/11 09:04:13;;;;;;;35.05;17.98;;;10.50;72.40;;;;;;5093957;28;20199;-80
2021/11/11 09:06:41;;;;;;;42.08;19.40;;;10.60;72.50;;;;;;5097826;28;20176;-81
2021/11/11 09:09:06;;;;;;;39.28;18.75;;;10.80;72.30;;;;;;5098240;28;20183;-81
2021/11/11 09:11:32;;;;;;;27.67;17.30;;;10.90;71.90;;;;;;5083648;28;20567;-81
2021/11/11 09:13:59;;;;;;;35.40;20.00;;;11.00;71.70;;;;;;5079164;28;20312;-81
2021/11/11 09:16:26;;;;;;;33.08;18.73;;;10.80;71.40;;;;;;5078490;28;20262;-80
2021/11/11 09:18:52;;;;;;;28.38;18.65;;;10.90;71.70;;;;;;5095255;28;20764;-81
2021/11/11 09:21:18;;;;;;;46.22;19.13;;;10.90;71.50;;;;;;5100287;28;20182;-81
2021/11/11 09:23:46;;;;;;;31.25;18.95;;;11.00;71.60;;;;;;5097002;28;20210;-81
2021/11/11 09:26:12;;;;;;;29.70;17.50;;;11.10;71.50;;;;;;5097874;28;20175;-80
2021/11/11 09:28:40;;;;;;;41.85;19.70;;;11.20;71.10;;;;;;5085360;28;20228;-81
2021/11/11 09:31:08;;;;;;;37.42;18.38;;;11.30;70.80;;;;;;5082600;28;20191;-81
2021/11/11 09:33:35;;;;;;;27.58;16.40;;;11.40;70.60;;;;;;5096251;28;20623;-81
2021/11/11 09:36:01;;;;;;;34.45;17.70;;;11.50;70.30;;;;;;5094148;28;20226;-80
2021/11/11 09:38:27;;;;;;;28.60;17.73;;;11.50;70.40;;;;;;5077821;28;20176;-81
2021/11/11 09:40:53;;;;;;;31.60;17.75;;;11.60;69.60;;;;;;5079459;28;20183;-81
2021/11/11 09:43:20;;;;;;;37.70;19.50;;;11.20;69.70;;;;;;5083050;28;20656;-81
2021/11/11 09:45:47;;;;;;;31.85;16.98;;;11.00;70.30;;;;;;5101063;28;20176;-81
2021/11/11 09:48:14;;;;;;;37.33;17.40;;;11.00;71.40;;;;;;5090951;28;20223;-81
2021/11/11 09:50:41;;;;;;;30.58;19.20;;;11.30;71.20;;;;;;5088324;28;20261;-80
2021/11/11 09:53:13;;;;;;;31.40;17.67;;;11.40;70.50;;;;;;5090810;28;20184;-79
2021/11/11 09:58:44;;;;;;;40.58;20.45;;;11.30;70.50;;;;;;5099150;28;20171;-82
2021/11/11 10:01:22;;;;;;;27.92;16.98;;;11.30;71.20;;;;;;5100341;28;20179;-82
2021/11/11 10:03:49;;;;;;;39.35;22.70;;;11.70;71.00;;;;;;5084326;28;20223;-81
2021/11/11 10:06:21;;;;;;;27.52;18.40;;;11.90;70.70;;;;;;5099773;28;20206;-82
2021/11/11 10:08:50;;;;;;;33.03;18.20;;;12.00;69.50;;;;;;5080459;28;20180;-80
2021/11/11 10:11:32;;;;;;;37.95;19.65;;;11.90;69.40;;;;;;5095330;28;20168;-81
2021/11/11 10:14:02;;;;;;;30.60;17.33;;;11.70;69.30;;;;;;5091319;28;20744;-80
2021/11/11 10:16:30;;;;;;;40.60;17.13;;;11.80;69.90;;;;;;5089569;28;20188;-81
2021/11/11 10:19:01;;;;;;;31.40;16.95;;;12.00;69.50;;;;;;5080369;28;20203;-81
2021/11/11 10:21:36;;;;;;;29.83;17.23;;;12.20;68.80;;;;;;5088696;28;20604;-80
2021/11/11 10:24:18;;;;;;;31.60;19.23;;;12.10;68.70;;;;;;5089270;28;20272;-80
2021/11/11 10:26:55;;;;;;;32.45;19.13;;;12.20;68.20;;;;;;5078154;28;20180;-81
2021/11/11 10:29:36;;;;;;;23.88;16.10;;;11.90;68.30;;;;;;5078057;28;20183;-80
2021/11/11 10:32:15;;;;;;;29.52;16.95;;;12.00;68.80;;;;;;5082542;28;20182;-80
2021/11/11 10:34:57;;;;;;;28.13;17.83;;;12.00;68.80;;;;;;5097207;28;20248;-80
2021/11/11 10:37:28;;;;;;;28.75;18.10;;;11.90;69.20;;;;;;5097231;28;20228;-81
2021/11/11 10:40:10;;;;;;;34.10;17.08;;;11.70;69.50;;;;;;5079730;28;20184;-81
2021/11/11 10:42:58;;;;;;;33.25;17.02;;;11.80;70.00;;;;;;5094381;28;20199;-81
2021/11/11 10:45:28;;;;;;;27.95;16.02;;;11.70;70.10;;;;;;5038019;28;20221;-80
2021/11/11 10:47:59;;;;;;;30.40;17.70;;;11.70;70.70;;;;;;5039612;28;20185;-80
2021/11/11 10:50:28;;;;;;;28.75;16.88;;;11.80;70.70;;;;;;5041645;28;20213;-80
2021/11/11 10:53:02;;;;;;;33.22;18.00;;;11.70;70.70;;;;;;5018990;28;20676;-80
2021/11/11 10:55:41;;;;;;;28.25;17.13;;;11.80;70.80;;;;;;5051973;28;20316;-80
2021/11/11 10:58:10;;;;;;;28.10;15.70;;;12.20;70.80;;;;;;5019102;28;20718;-80
2021/11/11 11:00:39;;;;;;;32.42;16.52;;;12.60;70.00;;;;;;5035047;28;20189;-80
2021/11/11 11:03:20;;;;;;;30.40;16.05;;;12.60;68.80;;;;;;5033403;28;20228;-80
2021/11/11 11:06:26;;;;;;;27.30;17.10;;;12.70;68.10;;;;;;5033399;28;20200;-80
2021/11/11 11:08:58;;;;;;;37.28;16.88;;;12.80;68.00;;;;;;5028659;28;20220;-80
2021/11/11 11:11:29;;;;;;;28.70;16.63;;;12.80;67.80;;;;;;5036090;28;20174;-80
2021/11/11 11:14:01;;;;;;;24.73;16.33;;;12.80;67.60;;;;;;5003201;28;20229;-80
2021/11/11 11:16:34;;;;;;;30.98;16.23;;;12.80;67.50;;;;;;5036558;28;20170;-80
2021/11/11 11:19:11;;;;;;;30.75;17.65;;;13.00;67.60;;;;;;5035987;28;20162;-80
2021/11/11 11:21:51;;;;;;;27.40;16.98;;;13.30;68.10;;;;;;5029951;28;20183;-80
2021/11/11 11:24:20;;;;;;;30.60;16.60;;;13.50;66.80;;;;;;5053285;28;20197;-81
2021/11/11 11:26:49;;;;;;;24.92;16.45;;;13.70;65.80;;;;;;5039722;28;20181;-81
2021/11/11 11:29:20;;;;;;;29.73;15.45;;;13.80;64.60;;;;;;5068066;28;20271;-81
2021/11/11 11:32:06;;;;;;;24.23;14.60;;;13.90;64.50;;;;;;5096603;28;20172;-81
2021/11/11 11:34:41;;;;;;;38.33;16.63;;;14.10;64.50;;;;;;5099498;28;20712;-80
2021/11/11 11:37:15;;;;;;;28.15;16.55;;;14.30;64.30;;;;;;5101584;28;20194;-81
2021/11/11 11:39:56;;;;;;;24.58;14.50;;;14.00;63.10;;;;;;5101689;28;20242;-81
2021/11/11 11:42:22;;;;;;;24.02;14.52;;;13.80;63.40;;;;;;5101161;28;20176;-81
2021/11/11 11:45:26;;;;;;;21.07;13.67;;;13.80;63.90;;;;;;5102214;28;20681;-81
2021/11/11 11:50:32;;;;;;;25.05;13.85;;;13.90;63.80;;;;;;5101288;28;20180;-81
2021/11/11 11:53:05;;;;;;;24.10;15.25;;;14.00;64.10;;;;;;5100719;28;20266;-82
2021/11/11 11:55:51;;;;;;;29.45;16.15;;;14.10;63.60;;;;;;5080548;28;20208;-81
2021/11/11 11:58:22;;;;;;;24.00;14.40;;;13.30;64.40;;;;;;5092906;28;20184;-80
2021/11/11 12:39:46;;;;;;;18.30;12.35;;;14.40;62.80;;;;;;5096151;28;20630;-80
2021/11/11 12:42:31;;;;;;;20.00;13.00;;;14.50;62.80;;;;;;5093619;28;20171;-80
2021/11/11 12:45:18;;;;;;;26.95;11.80;;;14.40;62.50;;;;;;5087641;28;20258;-80
2021/11/11 12:48:05;;;;;;;20.50;11.70;;;14.20;62.90;;;;;;5090315;28;20205;-80
2021/11/11 12:50:37;;;;;;;17.55;11.23;;;14.40;63.00;;;;;;5088625;28;20175;-79
2021/11/11 12:53:16;;;;;;;22.85;11.05;;;14.40;62.80;;;;;;5088921;28;20173;-80
2021/11/11 12:55:57;;;;;;;17.75;10.77;;;14.60;62.70;;;;;;5097028;28;20175;-79
2021/11/11 12:58:42;;;;;;;13.93;10.35;;;14.70;62.40;;;;;;5078076;28;20207;-80
2021/11/11 13:01:22;;;;;;;18.00;10.95;;;14.90;62.20;;;;;;5078694;28;20181;-80
2021/11/11 13:03:54;;;;;;;15.52;10.23;;;15.00;61.30;;;;;;5077804;28;20303;-81
2021/11/11 13:06:38;;;;;;;15.25;9.88;;;14.90;61.50;;;;;;5087602;28;20163;-80
2021/11/11 13:09:21;;;;;;;13.15;9.48;;;15.00;61.80;;;;;;5102312;28;20167;-80
2021/11/11 13:11:51;;;;;;;18.73;12.43;;;15.30;61.60;;;;;;5111926;28;20159;-80
2021/11/11 13:14:26;;;;;;;14.20;9.40;;;15.30;60.60;;;;;;5098734;28;20212;-80
2021/11/11 13:16:55;;;;;;;15.02;9.80;;;15.30;60.20;;;;;;5092249;28;20172;-80
2021/11/11 13:19:35;;;;;;;18.35;10.40;;;15.00;60.90;;;;;;5090112;28;20195;-80
2021/11/11 13:22:09;;;;;;;18.35;9.63;;;14.90;61.20;;;;;;5093253;28;20642;-80
2021/11/11 16:25:08;;;;;;;23.67;11.52;;;13.00;67.20;;;;;;5080628;28;20215;-81
2021/11/11 16:27:34;;;;;;;24.33;12.10;;;13.20;66.80;;;;;;5088830;28;20180;-81
2021/11/11 16:30:08;;;;;;;23.73;12.50;;;13.30;66.30;;;;;;5079860;28;20177;-81
2021/11/11 16:32:35;;;;;;;20.40;11.93;;;13.00;66.10;;;;;;5063140;28;20213;-81
2021/11/11 16:35:01;;;;;;;26.98;13.25;;;13.00;66.70;;;;;;5060450;28;20204;-81
2021/11/11 16:37:28;;;;;;;29.98;16.10;;;13.10;66.70;;;;;;5089400;28;20282;-81
2021/11/11 16:39:54;;;;;;;23.73;13.02;;;13.00;66.70;;;;;;5079078;28;20177;-80
2021/11/11 16:42:20;;;;;;;21.87;12.10;;;12.70;67.40;;;;;;5090286;28;20337;-81
2021/11/11 16:44:46;;;;;;;26.90;14.97;;;12.70;67.90;;;;;;5082204;28;20453;-81
2021/11/11 16:47:12;;;;;;;22.63;12.43;;;12.60;68.00;;;;;;5098470;28;20169;-81
2021/11/11 16:49:38;;;;;;;27.47;15.63;;;12.70;68.00;;;;;;5101310;28;20497;-81